Terminal Aerodrome Forecast
Issued by NWS

Home | Current Version | Previous Version | Graphics & Text | Print | Product List | Glossary On
Versions: 1 2 3 4 5 6 7 8 9 10 11 12 13 14 15 16 17 18 19 20 21 22 23 24 25 26
000
FTUS43 KGRB 211900 AAA
TAFATW
TAF AMD
KATW 211939Z 2120/2218 12008KT P6SM SCT004 OVC015
      TEMPO 2120/2124 5SM BR BKN004
     FM220000 11005KT 4SM BR SCT008 BKN015
     FM220500 VRB03KT 3SM BR BKN008 BKN035
     FM220900 VRB03KT 1SM BR BKN005
     FM221300 05005KT 4SM BR BKN020=

USA.gov is the U.S. government's official web portal to all federal, state and local government web resources and services.